sensor_id;sensor_type;location;lat;lon;timestamp;temperature;humidity
4725;DHT22;2376;53.544;10.226;2023-08-21T00:00:28;19.50;99.90
4725;DHT22;2376;53.544;10.226;2023-08-21T00:02:56;19.50;99.90
4725;DHT22;2376;53.544;10.226;2023-08-21T00:05:23;19.50;99.90
4725;DHT22;2376;53.544;10.226;2023-08-21T00:07:49;19.50;99.90
4725;DHT22;2376;53.544;10.226;2023-08-21T00:10:17;19.40;99.90
4725;DHT22;2376;53.544;10.226;2023-08-21T00:12:43;19.40;99.90
4725;DHT22;2376;53.544;10.226;2023-08-21T00:15:10;19.40;99.90
4725;DHT22;2376;53.544;10.226;2023-08-21T00:17:37;19.40;99.90
4725;DHT22;2376;53.544;10.226;2023-08-21T00:20:06;19.30;99.90
4725;DHT22;2376;53.544;10.226;2023-08-21T00:22:34;19.30;99.90
4725;DHT22;2376;53.544;10.226;2023-08-21T00:25:01;19.30;99.90
4725;DHT22;2376;53.544;10.226;2023-08-21T00:27:29;19.20;99.90
4725;DHT22;2376;53.544;10.226;2023-08-21T00:29:55;19.20;99.90
4725;DHT22;2376;53.544;10.226;2023-08-21T00:32:22;19.20;99.90
4725;DHT22;2376;53.544;10.226;2023-08-21T00:34:49;19.20;99.90
4725;DHT22;2376;53.544;10.226;2023-08-21T00:37:17;19.20;99.90
4725;DHT22;2376;53.544;10.226;2023-08-21T00:39:45;19.10;99.90
4725;DHT22;2376;53.544;10.226;2023-08-21T00:42:11;19.10;99.90
4725;DHT22;2376;53.544;10.226;2023-08-21T00:44:38;19.00;99.90
4725;DHT22;2376;53.544;10.226;2023-08-21T00:47:05;19.00;99.90
4725;DHT22;2376;53.544;10.226;2023-08-21T00:49:32;19.00;99.90
4725;DHT22;2376;53.544;10.226;2023-08-21T00:51:59;19.00;99.90
4725;DHT22;2376;53.544;10.226;2023-08-21T00:54:28;19.00;99.90
4725;DHT22;2376;53.544;10.226;2023-08-21T00:56:55;18.90;99.90
4725;DHT22;2376;53.544;10.226;2023-08-21T00:59:22;18.90;99.90
4725;DHT22;2376;53.544;10.226;2023-08-21T01:01:49;18.80;99.90
4725;DHT22;2376;53.544;10.226;2023-08-21T01:04:16;18.80;99.90
4725;DHT22;2376;53.544;10.226;2023-08-21T01:06:42;18.80;99.90
4725;DHT22;2376;53.544;10.226;2023-08-21T01:09:15;18.70;99.90
4725;DHT22;2376;53.544;10.226;2023-08-21T01:11:50;18.70;99.90
4725;DHT22;2376;53.544;10.226;2023-08-21T01:14:27;18.70;99.90
4725;DHT22;2376;53.544;10.226;2023-08-21T01:16:59;18.60;99.90
4725;DHT22;2376;53.544;10.226;2023-08-21T01:19:30;18.60;99.90
4725;DHT22;2376;53.544;10.226;2023-08-21T01:21:58;18.60;99.90
4725;DHT22;2376;53.544;10.226;2023-08-21T01:24:27;18.50;99.90
4725;DHT22;2376;53.544;10.226;2023-08-21T01:26:53;18.50;99.90
4725;DHT22;2376;53.544;10.226;2023-08-21T01:29:20;18.50;99.90
4725;DHT22;2376;53.544;10.226;2023-08-21T01:31:52;18.50;99.90
4725;DHT22;2376;53.544;10.226;2023-08-21T01:34:21;18.40;99.90
4725;DHT22;2376;53.544;10.226;2023-08-21T01:36:48;18.40;99.90
4725;DHT22;2376;53.544;10.226;2023-08-21T01:39:15;18.20;99.90
4725;DHT22;2376;53.544;10.226;2023-08-21T01:41:43;18.20;99.90
4725;DHT22;2376;53.544;10.226;2023-08-21T01:44:10;18.10;99.90
4725;DHT22;2376;53.544;10.226;2023-08-21T01:46:37;18.10;99.90
4725;DHT22;2376;53.544;10.226;2023-08-21T01:49:03;18.10;99.90
4725;DHT22;2376;53.544;10.226;2023-08-21T01:51:30;18.10;99.90
4725;DHT22;2376;53.544;10.226;2023-08-21T01:53:57;18.10;99.90
4725;DHT22;2376;53.544;10.226;2023-08-21T01:56:23;18.10;99.90
4725;DHT22;2376;53.544;10.226;2023-08-21T01:58:51;18.10;99.90
4725;DHT22;2376;53.544;10.226;2023-08-21T02:01:18;18.10;99.90
4725;DHT22;2376;53.544;10.226;2023-08-21T02:03:45;18.00;99.90
4725;DHT22;2376;53.544;10.226;2023-08-21T02:06:12;18.00;99.90
4725;DHT22;2376;53.544;10.226;2023-08-21T02:08:39;18.00;99.90
4725;DHT22;2376;53.544;10.226;2023-08-21T02:11:06;17.90;99.90
4725;DHT22;2376;53.544;10.226;2023-08-21T02:13:32;17.80;99.90
4725;DHT22;2376;53.544;10.226;2023-08-21T02:16:01;17.80;99.90
4725;DHT22;2376;53.544;10.226;2023-08-21T02:18:27;17.70;99.90
4725;DHT22;2376;53.544;10.226;2023-08-21T02:20:54;17.70;99.90
4725;DHT22;2376;53.544;10.226;2023-08-21T02:23:21;17.70;99.90
4725;DHT22;2376;53.544;10.226;2023-08-21T02:25:49;17.70;99.90
4725;DHT22;2376;53.544;10.226;2023-08-21T02:28:16;17.70;99.90
4725;DHT22;2376;53.544;10.226;2023-08-21T02:30:43;17.70;99.90
4725;DHT22;2376;53.544;10.226;2023-08-21T02:33:11;17.60;99.90
4725;DHT22;2376;53.544;10.226;2023-08-21T02:35:38;17.60;99.90
4725;DHT22;2376;53.544;10.226;2023-08-21T02:38:05;17.60;99.90
4725;DHT22;2376;53.544;10.226;2023-08-21T02:40:31;17.60;99.90
4725;DHT22;2376;53.544;10.226;2023-08-21T02:42:58;17.60;99.90
4725;DHT22;2376;53.544;10.226;2023-08-21T02:45:25;17.60;99.90
4725;DHT22;2376;53.544;10.226;2023-08-21T02:47:51;17.60;99.90
4725;DHT22;2376;53.544;10.226;2023-08-21T02:50:19;17.50;99.90
4725;DHT22;2376;53.544;10.226;2023-08-21T02:52:46;17.40;99.90
4725;DHT22;2376;53.544;10.226;2023-08-21T02:55:13;17.40;99.90
4725;DHT22;2376;53.544;10.226;2023-08-21T02:57:41;17.40;99.90
4725;DHT22;2376;53.544;10.226;2023-08-21T03:00:08;17.40;99.90
4725;DHT22;2376;53.544;10.226;2023-08-21T03:02:36;17.40;99.90
4725;DHT22;2376;53.544;10.226;2023-08-21T03:05:03;17.40;99.90
4725;DHT22;2376;53.544;10.226;2023-08-21T03:07:31;17.40;99.90
4725;DHT22;2376;53.544;10.226;2023-08-21T03:09:58;17.40;99.90
4725;DHT22;2376;53.544;10.226;2023-08-21T03:12:27;17.40;99.90
4725;DHT22;2376;53.544;10.226;2023-08-21T03:14:54;17.40;99.90
4725;DHT22;2376;53.544;10.226;2023-08-21T03:17:20;17.30;99.90
4725;DHT22;2376;53.544;10.226;2023-08-21T03:19:47;17.30;99.90
4725;DHT22;2376;53.544;10.226;2023-08-21T03:22:14;17.30;99.90
4725;DHT22;2376;53.544;10.226;2023-08-21T03:24:42;17.20;99.90
4725;DHT22;2376;53.544;10.226;2023-08-21T03:27:08;17.20;99.90
4725;DHT22;2376;53.544;10.226;2023-08-21T03:29:35;17.20;99.90
4725;DHT22;2376;53.544;10.226;2023-08-21T03:32:02;17.20;99.90
4725;DHT22;2376;53.544;10.226;2023-08-21T03:34:29;17.20;99.90
4725;DHT22;2376;53.544;10.226;2023-08-21T03:36:56;17.10;99.90
4725;DHT22;2376;53.544;10.226;2023-08-21T03:39:22;17.10;99.90
4725;DHT22;2376;53.544;10.226;2023-08-21T03:41:50;17.20;99.90
4725;DHT22;2376;53.544;10.226;2023-08-21T03:44:17;17.10;99.90
4725;DHT22;2376;53.544;10.226;2023-08-21T03:46:44;17.10;99.90
4725;DHT22;2376;53.544;10.226;2023-08-21T03:49:10;17.10;99.90
4725;DHT22;2376;53.544;10.226;2023-08-21T03:51:37;17.10;99.90
4725;DHT22;2376;53.544;10.226;2023-08-21T03:54:04;17.10;99.90
4725;DHT22;2376;53.544;10.226;2023-08-21T03:56:31;17.10;99.90
4725;DHT22;2376;53.544;10.226;2023-08-21T03:58:59;17.10;99.90
4725;DHT22;2376;53.544;10.226;2023-08-21T04:01:26;17.00;99.90
4725;DHT22;2376;53.544;10.226;2023-08-21T04:03:53;17.00;99.90
4725;DHT22;2376;53.544;10.226;2023-08-21T04:06:20;17.00;99.90
4725;DHT22;2376;53.544;10.226;2023-08-21T04:08:46;17.00;99.90
4725;DHT22;2376;53.544;10.226;2023-08-21T04:11:13;16.90;99.90
4725;DHT22;2376;53.544;10.226;2023-08-21T04:13:40;17.00;99.90
4725;DHT22;2376;53.544;10.226;2023-08-21T04:16:08;16.90;99.90
4725;DHT22;2376;53.544;10.226;2023-08-21T04:18:36;16.90;99.90
4725;DHT22;2376;53.544;10.226;2023-08-21T04:21:04;17.00;99.90
4725;DHT22;2376;53.544;10.226;2023-08-21T04:23:31;16.90;99.90
4725;DHT22;2376;53.544;10.226;2023-08-21T04:26:00;16.90;99.90
4725;DHT22;2376;53.544;10.226;2023-08-21T04:28:27;16.90;99.90
4725;DHT22;2376;53.544;10.226;2023-08-21T04:30:54;16.90;99.90
4725;DHT22;2376;53.544;10.226;2023-08-21T04:33:24;16.90;99.90
4725;DHT22;2376;53.544;10.226;2023-08-21T04:35:51;16.90;99.90
4725;DHT22;2376;53.544;10.226;2023-08-21T04:38:18;16.90;99.90
4725;DHT22;2376;53.544;10.226;2023-08-21T04:40:44;16.90;99.90
4725;DHT22;2376;53.544;10.226;2023-08-21T04:43:11;16.90;99.90
4725;DHT22;2376;53.544;10.226;2023-08-21T04:45:38;16.80;99.90
4725;DHT22;2376;53.544;10.226;2023-08-21T04:48:05;16.80;99.90
4725;DHT22;2376;53.544;10.226;2023-08-21T04:50:33;16.90;99.90
4725;DHT22;2376;53.544;10.226;2023-08-21T04:52:59;16.90;99.90
4725;DHT22;2376;53.544;10.226;2023-08-21T04:55:26;16.90;99.90
4725;DHT22;2376;53.544;10.226;2023-08-21T04:57:53;16.90;99.90
4725;DHT22;2376;53.544;10.226;2023-08-21T05:00:20;16.90;99.90
4725;DHT22;2376;53.544;10.226;2023-08-21T05:02:46;17.00;99.90
4725;DHT22;2376;53.544;10.226;2023-08-21T05:05:13;17.00;99.90
4725;DHT22;2376;53.544;10.226;2023-08-21T05:07:41;17.00;99.90
4725;DHT22;2376;53.544;10.226;2023-08-21T05:10:08;17.00;99.90
4725;DHT22;2376;53.544;10.226;2023-08-21T05:12:35;17.00;99.90
4725;DHT22;2376;53.544;10.226;2023-08-21T05:15:02;17.10;99.90
4725;DHT22;2376;53.544;10.226;2023-08-21T05:17:29;17.10;99.90
4725;DHT22;2376;53.544;10.226;2023-08-21T05:19:56;17.10;99.90
4725;DHT22;2376;53.544;10.226;2023-08-21T05:22:23;17.20;99.90
4725;DHT22;2376;53.544;10.226;2023-08-21T05:24:51;17.20;99.90
4725;DHT22;2376;53.544;10.226;2023-08-21T05:27:17;17.20;99.90
4725;DHT22;2376;53.544;10.226;2023-08-21T05:29:44;17.30;99.90
4725;DHT22;2376;53.544;10.226;2023-08-21T05:32:11;17.30;99.90
4725;DHT22;2376;53.544;10.226;2023-08-21T05:34:37;17.40;99.90
4725;DHT22;2376;53.544;10.226;2023-08-21T05:37:04;17.40;99.90
4725;DHT22;2376;53.544;10.226;2023-08-21T05:39:30;17.40;99.90
4725;DHT22;2376;53.544;10.226;2023-08-21T05:41:58;17.50;99.90
4725;DHT22;2376;53.544;10.226;2023-08-21T05:44:25;17.50;99.90
4725;DHT22;2376;53.544;10.226;2023-08-21T05:46:52;17.60;99.90
4725;DHT22;2376;53.544;10.226;2023-08-21T05:49:19;17.60;99.90
4725;DHT22;2376;53.544;10.226;2023-08-21T05:51:46;17.60;99.90
4725;DHT22;2376;53.544;10.226;2023-08-21T05:54:12;17.60;99.90
4725;DHT22;2376;53.544;10.226;2023-08-21T05:56:39;17.70;99.90
4725;DHT22;2376;53.544;10.226;2023-08-21T05:59:10;17.70;99.90
4725;DHT22;2376;53.544;10.226;2023-08-21T06:01:37;17.80;99.90
4725;DHT22;2376;53.544;10.226;2023-08-21T06:04:04;17.80;99.90
4725;DHT22;2376;53.544;10.226;2023-08-21T06:06:30;17.80;99.90
4725;DHT22;2376;53.544;10.226;2023-08-21T06:08:57;17.90;99.90
4725;DHT22;2376;53.544;10.226;2023-08-21T06:11:24;18.00;99.90
4725;DHT22;2376;53.544;10.226;2023-08-21T06:13:50;18.00;99.90
4725;DHT22;2376;53.544;10.226;2023-08-21T06:16:19;18.10;99.90
4725;DHT22;2376;53.544;10.226;2023-08-21T06:18:45;18.10;99.90
4725;DHT22;2376;53.544;10.226;2023-08-21T06:21:12;18.20;99.90
4725;DHT22;2376;53.544;10.226;2023-08-21T06:23:38;18.30;99.90
4725;DHT22;2376;53.544;10.226;2023-08-21T06:26:05;18.30;99.90
4725;DHT22;2376;53.544;10.226;2023-08-21T06:28:32;18.40;99.90
4725;DHT22;2376;53.544;10.226;2023-08-21T06:30:58;18.40;99.90
4725;DHT22;2376;53.544;10.226;2023-08-21T06:33:30;18.40;99.90
4725;DHT22;2376;53.544;10.226;2023-08-21T06:35:57;18.40;99.90
4725;DHT22;2376;53.544;10.226;2023-08-21T06:38:23;18.50;99.90
4725;DHT22;2376;53.544;10.226;2023-08-21T06:40:50;18.60;99.90
4725;DHT22;2376;53.544;10.226;2023-08-21T06:43:17;18.60;99.90
4725;DHT22;2376;53.544;10.226;2023-08-21T06:45:44;18.70;99.90
4725;DHT22;2376;53.544;10.226;2023-08-21T06:48:10;18.80;99.90
4725;DHT22;2376;53.544;10.226;2023-08-21T06:50:38;18.80;99.90
4725;DHT22;2376;53.544;10.226;2023-08-21T06:53:05;18.80;99.90
4725;DHT22;2376;53.544;10.226;2023-08-21T06:55:32;18.90;99.90
4725;DHT22;2376;53.544;10.226;2023-08-21T06:57:58;19.00;99.90
4725;DHT22;2376;53.544;10.226;2023-08-21T07:00:25;19.00;99.90
4725;DHT22;2376;53.544;10.226;2023-08-21T07:02:52;19.00;99.90
4725;DHT22;2376;53.544;10.226;2023-08-21T07:05:19;19.10;99.90
4725;DHT22;2376;53.544;10.226;2023-08-21T07:07:47;19.20;99.90
4725;DHT22;2376;53.544;10.226;2023-08-21T07:10:14;19.20;99.90
4725;DHT22;2376;53.544;10.226;2023-08-21T07:12:40;19.30;99.90
4725;DHT22;2376;53.544;10.226;2023-08-21T07:15:08;19.30;99.90
4725;DHT22;2376;53.544;10.226;2023-08-21T07:17:35;19.40;99.90
4725;DHT22;2376;53.544;10.226;2023-08-21T07:20:02;19.40;99.90
4725;DHT22;2376;53.544;10.226;2023-08-21T07:22:29;19.50;99.90
4725;DHT22;2376;53.544;10.226;2023-08-21T07:24:57;19.50;99.90
4725;DHT22;2376;53.544;10.226;2023-08-21T07:27:25;19.60;99.90
4725;DHT22;2376;53.544;10.226;2023-08-21T07:29:52;19.70;99.90
4725;DHT22;2376;53.544;10.226;2023-08-21T07:32:19;19.80;99.90
4725;DHT22;2376;53.544;10.226;2023-08-21T07:34:45;19.90;99.90
4725;DHT22;2376;53.544;10.226;2023-08-21T07:37:12;20.00;99.90
4725;DHT22;2376;53.544;10.226;2023-08-21T07:39:39;20.00;99.90
4725;DHT22;2376;53.544;10.226;2023-08-21T07:42:07;20.00;99.90
4725;DHT22;2376;53.544;10.226;2023-08-21T07:44:34;20.10;99.90
4725;DHT22;2376;53.544;10.226;2023-08-21T07:47:00;20.20;99.90
4725;DHT22;2376;53.544;10.226;2023-08-21T07:49:27;20.20;99.90
4725;DHT22;2376;53.544;10.226;2023-08-21T07:51:54;20.30;99.90
4725;DHT22;2376;53.544;10.226;2023-08-21T07:54:21;20.40;99.90
4725;DHT22;2376;53.544;10.226;2023-08-21T07:56:48;20.40;99.90
4725;DHT22;2376;53.544;10.226;2023-08-21T07:59:16;20.50;99.90
4725;DHT22;2376;53.544;10.226;2023-08-21T08:01:42;20.60;99.90
4725;DHT22;2376;53.544;10.226;2023-08-21T08:04:09;20.80;99.90
4725;DHT22;2376;53.544;10.226;2023-08-21T08:06:37;20.80;99.90
4725;DHT22;2376;53.544;10.226;2023-08-21T08:09:03;20.80;99.90
4725;DHT22;2376;53.544;10.226;2023-08-21T08:11:30;20.90;99.90
4725;DHT22;2376;53.544;10.226;2023-08-21T08:13:57;21.00;99.90
4725;DHT22;2376;53.544;10.226;2023-08-21T08:16:25;21.10;99.90
4725;DHT22;2376;53.544;10.226;2023-08-21T08:18:51;21.20;99.90
4725;DHT22;2376;53.544;10.226;2023-08-21T08:21:18;21.30;99.90
4725;DHT22;2376;53.544;10.226;2023-08-21T08:23:45;21.50;99.90
4725;DHT22;2376;53.544;10.226;2023-08-21T08:26:11;21.60;99.90
4725;DHT22;2376;53.544;10.226;2023-08-21T08:28:38;21.60;99.90
4725;DHT22;2376;53.544;10.226;2023-08-21T08:31:05;21.70;99.90
4725;DHT22;2376;53.544;10.226;2023-08-21T08:33:33;21.90;99.90
4725;DHT22;2376;53.544;10.226;2023-08-21T08:35:59;21.70;99.90
4725;DHT22;2376;53.544;10.226;2023-08-21T08:38:26;21.70;99.90
4725;DHT22;2376;53.544;10.226;2023-08-21T08:40:54;21.80;99.90
4725;DHT22;2376;53.544;10.226;2023-08-21T08:43:22;22.10;99.90
4725;DHT22;2376;53.544;10.226;2023-08-21T08:45:52;22.00;99.90
4725;DHT22;2376;53.544;10.226;2023-08-21T08:48:21;22.20;99.90
4725;DHT22;2376;53.544;10.226;2023-08-21T08:50:50;22.30;99.90
4725;DHT22;2376;53.544;10.226;2023-08-21T08:53:18;22.40;99.90
4725;DHT22;2376;53.544;10.226;2023-08-21T08:55:45;22.50;99.90
4725;DHT22;2376;53.544;10.226;2023-08-21T08:58:12;22.70;99.90
4725;DHT22;2376;53.544;10.226;2023-08-21T09:00:39;22.80;99.90
4725;DHT22;2376;53.544;10.226;2023-08-21T09:03:05;22.80;99.90
4725;DHT22;2376;53.544;10.226;2023-08-21T09:05:34;22.80;99.90
4725;DHT22;2376;53.544;10.226;2023-08-21T09:08:10;22.90;99.90
4725;DHT22;2376;53.544;10.226;2023-08-21T09:10:37;22.90;99.90
4725;DHT22;2376;53.544;10.226;2023-08-21T09:13:10;23.00;99.90
4725;DHT22;2376;53.544;10.226;2023-08-21T09:15:37;23.00;99.90
4725;DHT22;2376;53.544;10.226;2023-08-21T09:18:04;23.10;99.90
4725;DHT22;2376;53.544;10.226;2023-08-21T09:20:35;23.20;99.90
4725;DHT22;2376;53.544;10.226;2023-08-21T09:23:02;23.20;99.90
4725;DHT22;2376;53.544;10.226;2023-08-21T09:25:34;23.30;99.90
4725;DHT22;2376;53.544;10.226;2023-08-21T09:28:05;23.40;99.90
4725;DHT22;2376;53.544;10.226;2023-08-21T09:30:43;23.40;99.90
4725;DHT22;2376;53.544;10.226;2023-08-21T09:33:10;23.40;99.90
4725;DHT22;2376;53.544;10.226;2023-08-21T09:35:37;23.30;99.90
4725;DHT22;2376;53.544;10.226;2023-08-21T09:38:05;23.40;99.90
4725;DHT22;2376;53.544;10.226;2023-08-21T09:40:33;23.60;99.90
4725;DHT22;2376;53.544;10.226;2023-08-21T09:43:03;23.70;99.90
4725;DHT22;2376;53.544;10.226;2023-08-21T09:45:30;23.90;99.90
4725;DHT22;2376;53.544;10.226;2023-08-21T09:47:57;24.00;99.90
4725;DHT22;2376;53.544;10.226;2023-08-21T09:50:26;24.20;99.90
4725;DHT22;2376;53.544;10.226;2023-08-21T09:52:56;24.20;99.90
4725;DHT22;2376;53.544;10.226;2023-08-21T09:55:23;23.90;99.90
4725;DHT22;2376;53.544;10.226;2023-08-21T09:57:53;24.00;99.90
4725;DHT22;2376;53.544;10.226;2023-08-21T10:00:24;24.20;99.90
4725;DHT22;2376;53.544;10.226;2023-08-21T10:02:51;24.30;99.90
4725;DHT22;2376;53.544;10.226;2023-08-21T10:05:18;24.50;99.90
4725;DHT22;2376;53.544;10.226;2023-08-21T10:07:47;24.60;99.90
4725;DHT22;2376;53.544;10.226;2023-08-21T10:10:15;24.50;99.90
4725;DHT22;2376;53.544;10.226;2023-08-21T10:12:42;24.30;99.90
4725;DHT22;2376;53.544;10.226;2023-08-21T10:15:10;24.40;99.90
4725;DHT22;2376;53.544;10.226;2023-08-21T10:17:37;24.60;99.90
4725;DHT22;2376;53.544;10.226;2023-08-21T10:20:05;24.70;99.90
4725;DHT22;2376;53.544;10.226;2023-08-21T10:22:39;24.50;99.90
4725;DHT22;2376;53.544;10.226;2023-08-21T10:25:16;24.50;99.90
4725;DHT22;2376;53.544;10.226;2023-08-21T10:27:45;24.40;99.90
4725;DHT22;2376;53.544;10.226;2023-08-21T10:30:21;24.50;99.90
4725;DHT22;2376;53.544;10.226;2023-08-21T10:32:50;24.60;99.90
4725;DHT22;2376;53.544;10.226;2023-08-21T10:35:19;24.40;99.90
4725;DHT22;2376;53.544;10.226;2023-08-21T10:38:10;24.60;99.90
4725;DHT22;2376;53.544;10.226;2023-08-21T10:40:38;24.20;98.80
4725;DHT22;2376;53.544;10.226;2023-08-21T10:43:37;24.30;99.00
4725;DHT22;2376;53.544;10.226;2023-08-21T10:46:06;24.60;99.90
4725;DHT22;2376;53.544;10.226;2023-08-21T10:48:33;24.70;99.90
4725;DHT22;2376;53.544;10.226;2023-08-21T10:51:02;25.00;99.90
4725;DHT22;2376;53.544;10.226;2023-08-21T10:53:30;24.90;99.40
4725;DHT22;2376;53.544;10.226;2023-08-21T10:55:57;24.70;96.40
4725;DHT22;2376;53.544;10.226;2023-08-21T10:58:23;24.60;97.80
4725;DHT22;2376;53.544;10.226;2023-08-21T11:00:56;24.80;98.70
4725;DHT22;2376;53.544;10.226;2023-08-21T11:03:25;25.20;96.60
4725;DHT22;2376;53.544;10.226;2023-08-21T11:06:05;25.30;96.40
4725;DHT22;2376;53.544;10.226;2023-08-21T11:08:33;25.40;93.50
4725;DHT22;2376;53.544;10.226;2023-08-21T11:11:01;25.20;97.10
4725;DHT22;2376;53.544;10.226;2023-08-21T11:13:28;25.40;96.10
4725;DHT22;2376;53.544;10.226;2023-08-21T11:15:58;25.50;99.10
4725;DHT22;2376;53.544;10.226;2023-08-21T11:18:37;25.90;99.20
4725;DHT22;2376;53.544;10.226;2023-08-21T11:21:05;26.00;95.00
4725;DHT22;2376;53.544;10.226;2023-08-21T11:23:34;25.80;92.20
4725;DHT22;2376;53.544;10.226;2023-08-21T11:26:02;25.70;92.40
4725;DHT22;2376;53.544;10.226;2023-08-21T11:28:30;25.80;84.80
4725;DHT22;2376;53.544;10.226;2023-08-21T11:30:57;25.80;80.80
4725;DHT22;2376;53.544;10.226;2023-08-21T11:33:25;25.30;84.30
4725;DHT22;2376;53.544;10.226;2023-08-21T11:35:54;25.30;87.50
4725;DHT22;2376;53.544;10.226;2023-08-21T11:38:23;25.20;85.20
4725;DHT22;2376;53.544;10.226;2023-08-21T11:40:54;25.20;85.70
4725;DHT22;2376;53.544;10.226;2023-08-21T11:43:21;25.40;87.40
4725;DHT22;2376;53.544;10.226;2023-08-21T11:45:48;25.50;85.10
4725;DHT22;2376;53.544;10.226;2023-08-21T11:48:15;25.50;79.40
4725;DHT22;2376;53.544;10.226;2023-08-21T11:50:41;25.50;81.30
4725;DHT22;2376;53.544;10.226;2023-08-21T11:53:09;25.40;84.30
4725;DHT22;2376;53.544;10.226;2023-08-21T11:55:38;25.70;90.40
4725;DHT22;2376;53.544;10.226;2023-08-21T11:58:05;26.00;88.50
4725;DHT22;2376;53.544;10.226;2023-08-21T12:00:32;26.30;87.40
4725;DHT22;2376;53.544;10.226;2023-08-21T12:03:00;26.40;87.00
4725;DHT22;2376;53.544;10.226;2023-08-21T12:05:28;26.30;79.40
4725;DHT22;2376;53.544;10.226;2023-08-21T12:07:55;25.90;73.60
4725;DHT22;2376;53.544;10.226;2023-08-21T12:10:24;25.80;74.10
4725;DHT22;2376;53.544;10.226;2023-08-21T12:12:51;25.60;73.70
4725;DHT22;2376;53.544;10.226;2023-08-21T12:15:17;25.30;75.20
4725;DHT22;2376;53.544;10.226;2023-08-21T12:17:44;25.50;78.90
4725;DHT22;2376;53.544;10.226;2023-08-21T12:20:11;25.50;78.00
4725;DHT22;2376;53.544;10.226;2023-08-21T12:22:38;25.90;79.00
4725;DHT22;2376;53.544;10.226;2023-08-21T12:25:06;26.20;74.40
4725;DHT22;2376;53.544;10.226;2023-08-21T12:27:35;26.00;71.60
4725;DHT22;2376;53.544;10.226;2023-08-21T12:30:02;26.00;74.90
4725;DHT22;2376;53.544;10.226;2023-08-21T12:32:28;25.90;70.80
4725;DHT22;2376;53.544;10.226;2023-08-21T12:34:55;25.80;69.70
4725;DHT22;2376;53.544;10.226;2023-08-21T12:37:22;26.00;67.60
4725;DHT22;2376;53.544;10.226;2023-08-21T12:39:49;26.20;68.80
4725;DHT22;2376;53.544;10.226;2023-08-21T12:42:15;26.40;66.20
4725;DHT22;2376;53.544;10.226;2023-08-21T12:44:43;26.40;67.90
4725;DHT22;2376;53.544;10.226;2023-08-21T12:47:10;26.10;68.20
4725;DHT22;2376;53.544;10.226;2023-08-21T12:49:37;26.30;67.70
4725;DHT22;2376;53.544;10.226;2023-08-21T12:52:05;26.20;65.10
4725;DHT22;2376;53.544;10.226;2023-08-21T12:54:32;26.00;63.90
4725;DHT22;2376;53.544;10.226;2023-08-21T12:56:59;26.10;64.40
4725;DHT22;2376;53.544;10.226;2023-08-21T12:59:25;26.10;64.60
4725;DHT22;2376;53.544;10.226;2023-08-21T13:01:53;26.10;63.80
4725;DHT22;2376;53.544;10.226;2023-08-21T13:04:20;26.10;60.70
4725;DHT22;2376;53.544;10.226;2023-08-21T13:06:47;26.00;64.40
4725;DHT22;2376;53.544;10.226;2023-08-21T13:09:13;25.70;62.60
4725;DHT22;2376;53.544;10.226;2023-08-21T13:11:40;25.70;64.40
4725;DHT22;2376;53.544;10.226;2023-08-21T13:14:06;25.90;63.70
4725;DHT22;2376;53.544;10.226;2023-08-21T13:16:33;25.90;64.20
4725;DHT22;2376;53.544;10.226;2023-08-21T13:19:01;25.90;62.20
4725;DHT22;2376;53.544;10.226;2023-08-21T13:21:28;25.80;65.80
4725;DHT22;2376;53.544;10.226;2023-08-21T13:23:55;25.70;64.30
4725;DHT22;2376;53.544;10.226;2023-08-21T13:26:22;25.90;65.80
4725;DHT22;2376;53.544;10.226;2023-08-21T13:28:50;26.10;66.70
4725;DHT22;2376;53.544;10.226;2023-08-21T13:31:17;26.10;65.40
4725;DHT22;2376;53.544;10.226;2023-08-21T13:33:44;26.40;66.80
4725;DHT22;2376;53.544;10.226;2023-08-21T13:36:13;26.60;65.60
4725;DHT22;2376;53.544;10.226;2023-08-21T13:38:40;26.60;63.90
4725;DHT22;2376;53.544;10.226;2023-08-21T13:41:07;26.90;67.10
4725;DHT22;2376;53.544;10.226;2023-08-21T13:43:35;27.10;65.60
4725;DHT22;2376;53.544;10.226;2023-08-21T13:46:02;27.10;61.60
4725;DHT22;2376;53.544;10.226;2023-08-21T13:48:29;26.80;61.30
4725;DHT22;2376;53.544;10.226;2023-08-21T13:50:56;26.80;59.70
4725;DHT22;2376;53.544;10.226;2023-08-21T13:53:24;26.80;57.30
4725;DHT22;2376;53.544;10.226;2023-08-21T13:55:50;26.70;55.60
4725;DHT22;2376;53.544;10.226;2023-08-21T13:58:17;26.80;54.90
4725;DHT22;2376;53.544;10.226;2023-08-21T14:00:44;26.60;54.00
4725;DHT22;2376;53.544;10.226;2023-08-21T14:03:10;26.30;56.20
4725;DHT22;2376;53.544;10.226;2023-08-21T14:05:37;26.50;56.80
4725;DHT22;2376;53.544;10.226;2023-08-21T14:08:04;26.60;55.40
4725;DHT22;2376;53.544;10.226;2023-08-21T14:10:32;26.70;57.90
4725;DHT22;2376;53.544;10.226;2023-08-21T14:12:59;26.90;57.00
4725;DHT22;2376;53.544;10.226;2023-08-21T14:15:28;27.00;55.30
4725;DHT22;2376;53.544;10.226;2023-08-21T14:17:55;27.00;55.60
4725;DHT22;2376;53.544;10.226;2023-08-21T14:20:22;27.30;57.00
4725;DHT22;2376;53.544;10.226;2023-08-21T14:22:48;27.50;58.10
4725;DHT22;2376;53.544;10.226;2023-08-21T14:25:16;27.50;54.30
4725;DHT22;2376;53.544;10.226;2023-08-21T14:27:44;27.40;54.20
4725;DHT22;2376;53.544;10.226;2023-08-21T14:30:11;27.70;56.10
4725;DHT22;2376;53.544;10.226;2023-08-21T14:32:39;27.80;56.00
4725;DHT22;2376;53.544;10.226;2023-08-21T14:35:08;27.90;55.40
4725;DHT22;2376;53.544;10.226;2023-08-21T14:37:34;28.00;55.10
4725;DHT22;2376;53.544;10.226;2023-08-21T14:40:01;27.80;53.10
4725;DHT22;2376;53.544;10.226;2023-08-21T14:42:31;27.60;52.30
4725;DHT22;2376;53.544;10.226;2023-08-21T14:45:00;27.70;53.30
4725;DHT22;2376;53.544;10.226;2023-08-21T14:47:26;27.40;52.00
4725;DHT22;2376;53.544;10.226;2023-08-21T14:49:53;27.00;50.90
4725;DHT22;2376;53.544;10.226;2023-08-21T14:52:20;27.10;54.00
4725;DHT22;2376;53.544;10.226;2023-08-21T14:54:48;27.30;54.30
4725;DHT22;2376;53.544;10.226;2023-08-21T14:57:15;27.40;51.00
4725;DHT22;2376;53.544;10.226;2023-08-21T14:59:41;27.30;51.20
4725;DHT22;2376;53.544;10.226;2023-08-21T15:02:09;27.30;47.60
4725;DHT22;2376;53.544;10.226;2023-08-21T15:04:36;27.30;47.00
4725;DHT22;2376;53.544;10.226;2023-08-21T15:07:03;27.30;46.20
4725;DHT22;2376;53.544;10.226;2023-08-21T15:09:29;27.30;45.40
4725;DHT22;2376;53.544;10.226;2023-08-21T15:11:56;27.30;46.70
4725;DHT22;2376;53.544;10.226;2023-08-21T15:14:23;27.50;47.90
4725;DHT22;2376;53.544;10.226;2023-08-21T15:16:49;27.70;47.30
4725;DHT22;2376;53.544;10.226;2023-08-21T15:19:17;27.60;47.20
4725;DHT22;2376;53.544;10.226;2023-08-21T15:21:44;27.90;48.50
4725;DHT22;2376;53.544;10.226;2023-08-21T15:24:11;28.40;49.30
4725;DHT22;2376;53.544;10.226;2023-08-21T15:26:37;28.70;45.00
4725;DHT22;2376;53.544;10.226;2023-08-21T15:29:04;28.80;44.20
4725;DHT22;2376;53.544;10.226;2023-08-21T15:31:31;29.40;44.60
4725;DHT22;2376;53.544;10.226;2023-08-21T15:33:57;29.60;43.50
4725;DHT22;2376;53.544;10.226;2023-08-21T15:36:25;30.00;43.20
4725;DHT22;2376;53.544;10.226;2023-08-21T15:38:52;29.90;43.30
4725;DHT22;2376;53.544;10.226;2023-08-21T15:41:19;30.50;44.20
4725;DHT22;2376;53.544;10.226;2023-08-21T15:43:45;30.60;41.40
4725;DHT22;2376;53.544;10.226;2023-08-21T15:46:12;30.70;40.60